N311TY KSNA-KSAN
Flight info
| Callsign | N311TY |
|---|---|
| Flight time | 0h 35m |
| Altitude | 9000 |
| Route | PACIF V208 HUBRD CARDI MZB |
| Aircraft | C208/L-SDFGR/C |
Departure
| Time | 2026-05-06 04:17 |
|---|---|
| Airport | John Wayne Orange County International Airport (KSNA) |
Arrival
| Time | 2026-05-06 04:52 |
|---|---|
| Airport | San Diego International Airport (KSAN) |
| Time | Latitude | Longitude | Altitude | Speed | Heading |
|---|---|---|---|---|---|
| 2026-05-06 03:49 | 33.67186 | -117.87348 | 56 ft | 0 kts | 251° |
| 2026-05-06 04:03 | 33.67185 | -117.87353 | 60 ft | 2 kts | 276° |
| 2026-05-06 04:03 | 33.67196 | -117.87339 | 62 ft | 7 kts | 113° |
| 2026-05-06 04:04 | 33.67191 | -117.87327 | 62 ft | 0 kts | 120° |
| 2026-05-06 04:10 | 33.67179 | -117.87299 | 54 ft | 7 kts | 102° |
| 2026-05-06 04:10 | 33.67227 | -117.87251 | 58 ft | 11 kts | 27° |
| 2026-05-06 04:11 | 33.67302 | -117.87204 | 55 ft | 13 kts | 28° |
| 2026-05-06 04:11 | 33.67386 | -117.87151 | 57 ft | 14 kts | 27° |
| 2026-05-06 04:11 | 33.67482 | -117.87090 | 58 ft | 17 kts | 30° |
| 2026-05-06 04:11 | 33.67590 | -117.87022 | 59 ft | 18 kts | 27° |
| 2026-05-06 04:12 | 33.67706 | -117.86949 | 56 ft | 20 kts | 27° |
| 2026-05-06 04:12 | 33.67832 | -117.86869 | 55 ft | 21 kts | 28° |
| 2026-05-06 04:12 | 33.67963 | -117.86799 | 52 ft | 21 kts | 18° |
| 2026-05-06 04:12 | 33.68097 | -117.86718 | 49 ft | 21 kts | 27° |
| 2026-05-06 04:13 | 33.68193 | -117.86634 | 48 ft | 15 kts | 79° |
| 2026-05-06 04:13 | 33.68193 | -117.86602 | 47 ft | 0 kts | 108° |
| 2026-05-06 04:15 | 33.68178 | -117.86564 | 47 ft | 14 kts | 118° |
| 2026-05-06 04:16 | 33.68076 | -117.86565 | 49 ft | 35 kts | 210° |
| 2026-05-06 04:16 | 33.67684 | -117.86817 | 65 ft | 83 kts | 208° |
| 2026-05-06 04:16 | 33.67113 | -117.87165 | 134 ft | 103 kts | 204° |
| 2026-05-06 04:16 | 33.66392 | -117.87246 | 465 ft | 103 kts | 183° |
| 2026-05-06 04:17 | 33.65704 | -117.87282 | 1093 ft | 99 kts | 187° |
| 2026-05-06 04:17 | 33.64999 | -117.87312 | 1618 ft | 101 kts | 187° |
| 2026-05-06 04:17 | 33.64295 | -117.87355 | 2147 ft | 101 kts | 188° |
| 2026-05-06 04:17 | 33.63584 | -117.87391 | 2688 ft | 103 kts | 186° |
| 2026-05-06 04:18 | 33.62867 | -117.87412 | 3232 ft | 104 kts | 183° |
| 2026-05-06 04:18 | 33.62144 | -117.87426 | 3734 ft | 105 kts | 185° |
| 2026-05-06 04:18 | 33.61416 | -117.87457 | 4216 ft | 107 kts | 187° |
| 2026-05-06 04:18 | 33.60653 | -117.87443 | 4696 ft | 112 kts | 166° |
| 2026-05-06 04:19 | 33.59929 | -117.87088 | 5177 ft | 113 kts | 161° |
| 2026-05-06 04:19 | 33.59190 | -117.86766 | 5634 ft | 116 kts | 162° |
| 2026-05-06 04:19 | 33.58427 | -117.86453 | 6099 ft | 117 kts | 163° |
| 2026-05-06 04:19 | 33.57646 | -117.86142 | 6550 ft | 119 kts | 163° |
| 2026-05-06 04:20 | 33.56856 | -117.85832 | 6998 ft | 120 kts | 161° |
| 2026-05-06 04:20 | 33.56064 | -117.85519 | 7439 ft | 120 kts | 160° |
| 2026-05-06 04:20 | 33.55269 | -117.85205 | 7880 ft | 120 kts | 160° |
| 2026-05-06 04:20 | 33.54470 | -117.84894 | 8323 ft | 121 kts | 159° |
| 2026-05-06 04:21 | 33.53669 | -117.84580 | 8764 ft | 121 kts | 158° |
| 2026-05-06 04:21 | 33.52853 | -117.84257 | 9078 ft | 134 kts | 157° |
| 2026-05-06 04:21 | 33.51874 | -117.83877 | 9087 ft | 159 kts | 159° |
| 2026-05-06 04:21 | 33.50769 | -117.83447 | 9087 ft | 174 kts | 159° |
| 2026-05-06 04:22 | 33.49589 | -117.82990 | 9086 ft | 181 kts | 159° |
| 2026-05-06 04:22 | 33.48373 | -117.82515 | 9085 ft | 186 kts | 159° |
| 2026-05-06 04:22 | 33.47136 | -117.82032 | 9084 ft | 188 kts | 159° |
| 2026-05-06 04:23 | 33.44640 | -117.81056 | 9081 ft | 189 kts | 159° |
| 2026-05-06 04:23 | 33.43385 | -117.80566 | 9085 ft | 190 kts | 160° |
| 2026-05-06 04:23 | 33.42124 | -117.80072 | 9084 ft | 191 kts | 160° |
| 2026-05-06 04:23 | 33.40854 | -117.79577 | 9084 ft | 192 kts | 159° |
| 2026-05-06 04:24 | 33.39583 | -117.79079 | 9082 ft | 192 kts | 160° |
| 2026-05-06 04:24 | 33.38312 | -117.78583 | 9080 ft | 192 kts | 160° |
| 2026-05-06 04:24 | 33.37039 | -117.78087 | 9080 ft | 192 kts | 160° |
| 2026-05-06 04:24 | 33.35767 | -117.77589 | 9080 ft | 192 kts | 159° |
| 2026-05-06 04:25 | 33.34493 | -117.77093 | 9085 ft | 192 kts | 160° |
| 2026-05-06 04:25 | 33.33219 | -117.76595 | 9084 ft | 193 kts | 159° |
| 2026-05-06 04:25 | 33.31944 | -117.76098 | 9084 ft | 193 kts | 159° |
| 2026-05-06 04:25 | 33.30670 | -117.75601 | 9085 ft | 193 kts | 159° |
| 2026-05-06 04:26 | 33.29496 | -117.74871 | 9068 ft | 189 kts | 138° |
| 2026-05-06 04:26 | 33.28650 | -117.73702 | 9065 ft | 185 kts | 117° |
| 2026-05-06 04:26 | 33.28216 | -117.72286 | 9061 ft | 180 kts | 97° |
| 2026-05-06 04:26 | 33.28001 | -117.70812 | 9071 ft | 180 kts | 97° |
| 2026-05-06 04:27 | 33.27779 | -117.69343 | 9076 ft | 180 kts | 97° |
| 2026-05-06 04:27 | 33.27555 | -117.67870 | 9074 ft | 180 kts | 97° |
| 2026-05-06 04:27 | 33.27334 | -117.66400 | 9079 ft | 180 kts | 97° |
| 2026-05-06 04:27 | 33.27112 | -117.64927 | 9077 ft | 180 kts | 97° |
| 2026-05-06 04:28 | 33.26891 | -117.63471 | 9080 ft | 180 kts | 97° |
| 2026-05-06 04:28 | 33.26669 | -117.61999 | 9081 ft | 180 kts | 97° |
| 2026-05-06 04:28 | 33.26445 | -117.60529 | 9082 ft | 180 kts | 97° |
| 2026-05-06 04:28 | 33.26222 | -117.59055 | 9084 ft | 180 kts | 97° |
| 2026-05-06 04:29 | 33.25834 | -117.57629 | 9092 ft | 184 kts | 115° |
| 2026-05-06 04:29 | 33.25035 | -117.56413 | 9084 ft | 188 kts | 131° |
| 2026-05-06 04:29 | 33.24124 | -117.55284 | 9086 ft | 189 kts | 131° |
| 2026-05-06 04:29 | 33.23216 | -117.54147 | 9087 ft | 189 kts | 131° |
| 2026-05-06 04:30 | 33.22308 | -117.53009 | 9088 ft | 189 kts | 131° |
| 2026-05-06 04:30 | 33.21398 | -117.51866 | 9089 ft | 190 kts | 131° |
| 2026-05-06 04:30 | 33.20488 | -117.50727 | 9089 ft | 189 kts | 131° |
| 2026-05-06 04:30 | 33.19568 | -117.49574 | 9091 ft | 190 kts | 131° |
| 2026-05-06 04:31 | 33.18669 | -117.48448 | 9088 ft | 190 kts | 131° |
| 2026-05-06 04:31 | 33.17757 | -117.47307 | 9089 ft | 190 kts | 130° |
| 2026-05-06 04:31 | 33.16852 | -117.46169 | 9090 ft | 189 kts | 131° |
| 2026-05-06 04:31 | 33.15945 | -117.45038 | 9091 ft | 188 kts | 131° |
| 2026-05-06 04:32 | 33.15039 | -117.43906 | 9088 ft | 188 kts | 131° |
| 2026-05-06 04:32 | 33.14135 | -117.42774 | 9090 ft | 188 kts | 131° |
| 2026-05-06 04:32 | 33.13082 | -117.41848 | 9091 ft | 191 kts | 153° |
| 2026-05-06 04:32 | 33.11872 | -117.41183 | 9088 ft | 191 kts | 154° |
| 2026-05-06 04:33 | 33.10664 | -117.40516 | 9097 ft | 191 kts | 153° |
| 2026-05-06 04:33 | 33.09458 | -117.39843 | 9098 ft | 191 kts | 153° |
| 2026-05-06 04:33 | 33.08252 | -117.39172 | 9099 ft | 191 kts | 153° |
| 2026-05-06 04:33 | 33.07048 | -117.38502 | 9100 ft | 191 kts | 154° |
| 2026-05-06 04:34 | 33.05841 | -117.37830 | 9097 ft | 192 kts | 154° |
| 2026-05-06 04:34 | 33.04626 | -117.37156 | 9087 ft | 192 kts | 155° |
| 2026-05-06 04:34 | 33.03412 | -117.36481 | 9088 ft | 193 kts | 154° |
| 2026-05-06 04:34 | 33.02195 | -117.35807 | 9090 ft | 193 kts | 155° |
| 2026-05-06 04:35 | 33.00977 | -117.35133 | 9086 ft | 193 kts | 153° |
| 2026-05-06 04:35 | 32.99757 | -117.34449 | 9089 ft | 194 kts | 154° |
| 2026-05-06 04:35 | 32.98533 | -117.33771 | 9093 ft | 194 kts | 154° |
| 2026-05-06 04:35 | 32.97307 | -117.33093 | 9095 ft | 194 kts | 154° |
| 2026-05-06 04:36 | 32.96080 | -117.32412 | 9098 ft | 194 kts | 154° |
| 2026-05-06 04:36 | 32.94858 | -117.31735 | 9101 ft | 194 kts | 154° |
| 2026-05-06 04:36 | 32.93635 | -117.31056 | 9103 ft | 194 kts | 153° |
| 2026-05-06 04:36 | 32.92659 | -117.29996 | 9091 ft | 191 kts | 124° |
| 2026-05-06 04:37 | 32.91926 | -117.28695 | 8980 ft | 187 kts | 121° |
| 2026-05-06 04:37 | 32.91212 | -117.27391 | 8623 ft | 188 kts | 121° |
| 2026-05-06 04:37 | 32.90746 | -117.26524 | 8404 ft | 187 kts | 120° |
| 2026-05-06 04:37 | 32.90031 | -117.25202 | 8069 ft | 187 kts | 121° |
| 2026-05-06 04:38 | 32.89345 | -117.23924 | 7762 ft | 185 kts | 121° |
| 2026-05-06 04:38 | 32.88653 | -117.22633 | 7454 ft | 185 kts | 121° |
| 2026-05-06 04:38 | 32.87959 | -117.21329 | 7163 ft | 183 kts | 121° |
| 2026-05-06 04:38 | 32.87279 | -117.20049 | 6874 ft | 183 kts | 120° |
| 2026-05-06 04:39 | 32.86591 | -117.18772 | 6572 ft | 183 kts | 121° |
| 2026-05-06 04:39 | 32.85914 | -117.17517 | 6297 ft | 180 kts | 121° |
| 2026-05-06 04:39 | 32.85246 | -117.16272 | 5851 ft | 179 kts | 121° |
| 2026-05-06 04:39 | 32.84608 | -117.15021 | 5494 ft | 176 kts | 121° |
| 2026-05-06 04:40 | 32.83979 | -117.13771 | 5109 ft | 175 kts | 121° |
| 2026-05-06 04:40 | 32.83365 | -117.12525 | 4985 ft | 174 kts | 121° |
| 2026-05-06 04:40 | 32.82751 | -117.11265 | 4989 ft | 174 kts | 120° |
| 2026-05-06 04:40 | 32.82145 | -117.10024 | 4989 ft | 174 kts | 121° |
| 2026-05-06 04:41 | 32.81548 | -117.08799 | 4989 ft | 172 kts | 120° |
| 2026-05-06 04:41 | 32.80945 | -117.07566 | 4988 ft | 172 kts | 121° |
| 2026-05-06 04:41 | 32.80343 | -117.06332 | 4988 ft | 173 kts | 120° |
| 2026-05-06 04:41 | 32.79730 | -117.05080 | 4998 ft | 173 kts | 121° |
| 2026-05-06 04:42 | 32.79128 | -117.03848 | 5000 ft | 173 kts | 120° |
| 2026-05-06 04:42 | 32.78535 | -117.02632 | 4973 ft | 170 kts | 121° |
| 2026-05-06 04:42 | 32.77931 | -117.01395 | 4600 ft | 172 kts | 121° |
| 2026-05-06 04:42 | 32.77340 | -117.00184 | 4248 ft | 171 kts | 121° |
| 2026-05-06 04:43 | 32.76749 | -116.98969 | 3997 ft | 164 kts | 121° |
| 2026-05-06 04:43 | 32.76182 | -116.97793 | 4001 ft | 167 kts | 120° |
| 2026-05-06 04:43 | 32.75597 | -116.96576 | 3998 ft | 172 kts | 120° |
| 2026-05-06 04:43 | 32.75000 | -116.95339 | 4001 ft | 174 kts | 120° |
| 2026-05-06 04:44 | 32.74398 | -116.94085 | 3996 ft | 174 kts | 121° |
| 2026-05-06 04:44 | 32.73796 | -116.92832 | 3999 ft | 175 kts | 120° |
| 2026-05-06 04:44 | 32.73186 | -116.91573 | 3996 ft | 177 kts | 120° |
| 2026-05-06 04:44 | 32.72514 | -116.90357 | 3999 ft | 176 kts | 136° |
| 2026-05-06 04:45 | 32.71434 | -116.89753 | 3997 ft | 174 kts | 179° |
| 2026-05-06 04:45 | 32.70284 | -116.89993 | 3815 ft | 167 kts | 200° |
| 2026-05-06 04:45 | 32.69202 | -116.90383 | 3785 ft | 159 kts | 200° |
| 2026-05-06 04:45 | 32.68156 | -116.90756 | 3789 ft | 159 kts | 200° |
| 2026-05-06 04:46 | 32.67057 | -116.91158 | 3788 ft | 169 kts | 202° |
| 2026-05-06 04:46 | 32.66113 | -116.91956 | 3788 ft | 170 kts | 240° |
| 2026-05-06 04:46 | 32.65863 | -116.93288 | 3785 ft | 169 kts | 276° |
| 2026-05-06 04:46 | 32.66005 | -116.94667 | 3793 ft | 168 kts | 280° |
| 2026-05-06 04:47 | 32.66247 | -116.96018 | 3789 ft | 167 kts | 289° |
| 2026-05-06 04:47 | 32.66614 | -116.97329 | 3792 ft | 168 kts | 290° |
| 2026-05-06 04:47 | 32.66989 | -116.98639 | 3789 ft | 168 kts | 290° |
| 2026-05-06 04:47 | 32.67368 | -116.99970 | 3787 ft | 168 kts | 290° |
| 2026-05-06 04:48 | 32.67730 | -117.01278 | 3678 ft | 166 kts | 289° |
| 2026-05-06 04:48 | 32.68077 | -117.02568 | 3463 ft | 162 kts | 292° |
| 2026-05-06 04:48 | 32.68540 | -117.03776 | 3226 ft | 161 kts | 296° |
| 2026-05-06 04:48 | 32.69025 | -117.04970 | 3000 ft | 160 kts | 297° |
| 2026-05-06 04:49 | 32.69560 | -117.06128 | 2805 ft | 160 kts | 301° |
| 2026-05-06 04:49 | 32.70116 | -117.07275 | 2584 ft | 161 kts | 297° |
| 2026-05-06 04:49 | 32.70606 | -117.08445 | 2290 ft | 155 kts | 295° |
| 2026-05-06 04:49 | 32.71026 | -117.09553 | 1812 ft | 141 kts | 292° |
| 2026-05-06 04:50 | 32.71330 | -117.10546 | 1601 ft | 112 kts | 287° |
| 2026-05-06 04:50 | 32.71541 | -117.11435 | 1422 ft | 114 kts | 286° |
| 2026-05-06 04:50 | 32.71762 | -117.12340 | 1238 ft | 115 kts | 287° |
| 2026-05-06 04:50 | 32.71978 | -117.13253 | 1049 ft | 114 kts | 286° |
| 2026-05-06 04:51 | 32.72196 | -117.14158 | 885 ft | 113 kts | 287° |
| 2026-05-06 04:51 | 32.72399 | -117.15049 | 694 ft | 109 kts | 287° |
| 2026-05-06 04:51 | 32.72602 | -117.15896 | 477 ft | 105 kts | 289° |
| 2026-05-06 04:51 | 32.72808 | -117.16715 | 298 ft | 102 kts | 288° |
| 2026-05-06 04:52 | 32.72996 | -117.17499 | 142 ft | 93 kts | 287° |
| 2026-05-06 04:52 | 32.73166 | -117.18197 | 29 ft | 80 kts | 288° |
| 2026-05-06 04:52 | 32.73299 | -117.18724 | 17 ft | 54 kts | 290° |
| 2026-05-06 04:52 | 32.73370 | -117.19013 | 20 ft | 23 kts | 287° |
| 2026-05-06 04:53 | 32.73470 | -117.19072 | 18 ft | 25 kts | 40° |
| 2026-05-06 04:53 | 32.73459 | -117.18920 | 17 ft | 20 kts | 104° |
| 2026-05-06 04:53 | 32.73440 | -117.18834 | 17 ft | 0 kts | 105° |
| 2026-05-06 04:54 | 32.73428 | -117.18789 | 17 ft | 11 kts | 107° |
| 2026-05-06 04:54 | 32.73401 | -117.18674 | 23 ft | 17 kts | 105° |
| 2026-05-06 04:54 | 32.73368 | -117.18537 | 25 ft | 18 kts | 106° |
| 2026-05-06 04:54 | 32.73330 | -117.18385 | 24 ft | 21 kts | 107° |
| 2026-05-06 04:55 | 32.73289 | -117.18213 | 24 ft | 22 kts | 107° |
| 2026-05-06 04:55 | 32.73247 | -117.18040 | 24 ft | 13 kts | 105° |
| 2026-05-06 04:55 | 32.73293 | -117.17970 | 25 ft | 13 kts | 17° |
| 2026-05-06 04:55 | 32.73377 | -117.17929 | 24 ft | 15 kts | 59° |
| 2026-05-06 04:56 | 32.73390 | -117.17870 | 24 ft | 0 kts | 71° |